Point Venture, TX

12:16 AM CDT on September 04, 2015 (GMT -0500)
Lake Travis Fire Rescue HQ | | Change Station
CLOSE
Current Station
Personal Weather Station
Location: Lakeway, TX
Elevation: 873 ft
Nearby Weather Stations

Elev 873 ft 30.36 °N, 97.95 °W | Updated 22 days ago

Clear
Clear
76 °F
Feels Like 76 °F
N
4
Wind Variable Wind from SSE
Gusts mph

Today
High -- | Low -- °F
--% Chance of Precip.
Yesterday
High -- | Low -- °F
Precip. -- in
7:10 AM 7:51 PM
Waning Gibbous, 63% visible
Pressure 29.94 in
Visibility 10.0 miles
Clouds Clear
Dew Point 71 °F
Humidity 86%
Rainfall in
Snow Depth Not available.
UV 0 out of 12
Pollen 7.20 out of 12
Air Quality Not available.
Flu Activity Not available.
METAR KRYW 040455Z AUTO 14003KT 10SM CLR 26/21 A2994 RMK AO2 T02600209
Pressure 29.94 in
Visibility 10.0 miles
Clouds Clear
Dew Point 71 °F
Humidity 86%
Rainfall in
Snow Depth Not available.
UV 0 out of 12
Pollen 7.20 out of 12
Air Quality Not available.
Flu Activity Not available.
METAR KRYW 040455Z AUTO 14003KT 10SM CLR 26/21 A2994 RMK AO2 T02600209

10-Day Weather Forecast

×

Almanac

Astronomy

Sep. 04, 2015 Rise Set
Actual Time
Civil Twilight
Nautical Twilight
Astronomical Twilight
Moon
Length of Visible Light
Length of Day
Tomorrow will be .
, % of the Moon is Illuminated

Today's Extremes

State Highs State Lows

Community

WunderPhotos

Upload Photos

1,852,129 photos uploaded!

WunderBlogs® & News

Nearby

Air Quality

  Air Quality AQ Index Pollutant
Not available.

Snow Depth

Station Depth Elevation

Earthquake Activity

City Distance Mag. Time & Date
Minimum magnitude displayed is 2.5.

Coastal Water Temperatures

Place Temperature

Stations

Nearby Weather Stations

Station Location Temp. Windchill Dew Point Humidity Wind Precip. Elev Updated Type